createdAt,value
2019-02-26T00:01:21.652Z,8.63
2019-02-26T00:03:48.811Z,8.83
2019-02-26T00:06:16.062Z,9.26
2019-02-26T00:08:43.031Z,9.19
2019-02-26T00:11:10.825Z,9.70
2019-02-26T00:13:37.178Z,10.00
2019-02-26T00:16:07.683Z,10.01
2019-02-26T00:18:31.733Z,9.53
2019-02-26T00:20:59.018Z,9.66
2019-02-26T00:23:27.905Z,8.83
2019-02-26T00:25:54.318Z,9.56
2019-02-26T00:28:22.070Z,9.90
2019-02-26T00:30:48.327Z,9.24
2019-02-26T00:33:14.525Z,8.49
2019-02-26T00:35:41.650Z,9.24
2019-02-26T00:38:09.384Z,9.53
2019-02-26T00:40:38.769Z,9.73
2019-02-26T00:43:06.552Z,9.96
2019-02-26T00:45:34.029Z,9.52
2019-02-26T00:48:00.874Z,8.25
2019-02-26T00:50:28.155Z,9.21
2019-02-26T00:52:57.071Z,9.83
2019-02-26T00:55:27.310Z,9.58
2019-02-26T00:57:51.352Z,9.72
2019-02-26T01:00:17.507Z,9.96
2019-02-26T01:02:44.019Z,9.62
2019-02-26T01:05:13.168Z,9.71
2019-02-26T01:07:41.902Z,9.19
2019-02-26T01:10:09.326Z,9.39
2019-02-26T01:12:37.520Z,9.03
2019-02-26T01:15:09.321Z,9.61
2019-02-26T01:17:35.818Z,9.12
2019-02-26T01:20:06.995Z,9.68
2019-02-26T01:22:35.430Z,9.93
2019-02-26T01:25:02.668Z,9.92
2019-02-26T01:27:28.939Z,10.00
2019-02-26T01:29:55.922Z,9.70
2019-02-26T01:32:24.904Z,9.68
2019-02-26T01:34:51.232Z,10.11
2019-02-26T01:37:17.390Z,10.06
2019-02-26T01:39:44.817Z,10.13
2019-02-26T01:42:13.350Z,9.12
2019-02-26T01:44:41.714Z,9.84
2019-02-26T01:47:08.276Z,9.60
2019-02-26T01:49:34.442Z,10.28
2019-02-26T01:52:00.599Z,10.51
2019-02-26T01:54:28.301Z,10.22
2019-02-26T01:56:54.838Z,9.79
2019-02-26T01:59:20.999Z,9.88
2019-02-26T02:01:49.687Z,9.49
2019-02-26T02:04:17.062Z,9.51
2019-02-26T02:06:43.322Z,8.70
2019-02-26T02:09:13.345Z,9.08
2019-02-26T02:11:38.653Z,8.93
2019-02-26T02:14:06.513Z,8.92
2019-02-26T02:16:33.929Z,8.57
2019-02-26T02:19:00.101Z,7.93
2019-02-26T02:21:29.080Z,8.49
2019-02-26T02:23:55.319Z,8.77
2019-02-26T02:26:21.579Z,8.89
2019-02-26T02:28:47.732Z,8.33
2019-02-26T02:31:13.918Z,8.07
2019-02-26T02:33:40.080Z,7.67
2019-02-26T02:36:06.239Z,8.68
2019-02-26T02:38:36.539Z,9.16
2019-02-26T02:41:00.614Z,9.87
2019-02-26T02:43:26.777Z,9.88
2019-02-26T02:45:55.541Z,9.74
2019-02-26T02:48:21.025Z,9.84
2019-02-26T02:50:47.586Z,9.71
2019-02-26T02:53:13.863Z,9.62
2019-02-26T02:55:41.088Z,10.16
2019-02-26T02:58:08.239Z,10.59
2019-02-26T03:00:34.607Z,10.64
2019-02-26T03:03:00.773Z,10.67
2019-02-26T03:05:27.050Z,10.57
2019-02-26T03:07:54.080Z,10.22
2019-02-26T03:10:26.060Z,10.21
2019-02-26T03:12:53.881Z,9.59
2019-02-26T03:15:17.451Z,9.90
2019-02-26T03:17:43.607Z,10.13
2019-02-26T03:20:13.568Z,9.56
2019-02-26T03:22:43.183Z,9.81
2019-02-26T03:25:10.770Z,9.88
2019-02-26T03:27:39.906Z,9.32
2019-02-26T03:30:26.208Z,9.22
2019-02-26T03:32:47.282Z,9.00
2019-02-26T03:35:16.148Z,7.99
2019-02-26T03:37:41.963Z,8.47
2019-02-26T03:40:10.430Z,8.68
2019-02-26T03:42:39.047Z,9.11
2019-02-26T03:45:07.970Z,8.68
2019-02-26T03:47:34.124Z,9.16
2019-02-26T03:50:00.278Z,9.37
2019-02-26T03:52:28.942Z,8.92
2019-02-26T03:54:54.541Z,9.11
2019-02-26T03:57:22.704Z,8.81
2019-02-26T03:59:48.802Z,8.80
2019-02-26T04:02:17.329Z,9.07
2019-02-26T04:04:43.149Z,9.22
2019-02-26T04:07:10.611Z,9.17
2019-02-26T04:09:39.306Z,8.79
2019-02-26T04:12:07.465Z,8.82
2019-02-26T04:14:33.204Z,8.85
2019-02-26T04:17:01.501Z,8.67
2019-02-26T04:19:27.426Z,8.60
2019-02-26T04:22:26.410Z,8.64
2019-02-26T04:24:55.995Z,8.50
2019-02-26T04:27:57.027Z,8.01
2019-02-26T04:30:44.636Z,7.42
2019-02-26T04:33:40.739Z,8.14
2019-02-26T04:36:23.317Z,7.96
2019-02-26T04:39:28.101Z,7.77
2019-02-26T04:42:32.516Z,8.31
2019-02-26T04:45:08.935Z,7.81
2019-02-26T04:47:41.874Z,8.08
2019-02-26T04:50:08.949Z,8.15
2019-02-26T04:52:37.770Z,9.00
2019-02-26T04:55:05.987Z,9.12
2019-02-26T04:57:32.236Z,8.54
2019-02-26T05:00:01.056Z,8.96
2019-02-26T05:02:26.790Z,8.89
2019-02-26T05:04:52.942Z,8.78
2019-02-26T05:07:24.197Z,8.01
2019-02-26T05:09:53.125Z,9.06
2019-02-26T05:12:18.502Z,9.45
2019-02-26T05:14:44.690Z,9.36
2019-02-26T05:17:10.948Z,9.69
2019-02-26T05:19:39.489Z,9.80
2019-02-26T05:22:07.062Z,10.54
2019-02-26T05:24:33.281Z,10.03
2019-02-26T05:27:01.261Z,10.38
2019-02-26T05:29:27.491Z,11.02
2019-02-26T05:31:55.665Z,11.16
2019-02-26T05:34:23.272Z,11.28
2019-02-26T05:36:49.897Z,11.47
2019-02-26T05:39:18.801Z,11.63
2019-02-26T05:41:44.129Z,11.17
2019-02-26T05:44:10.795Z,12.32
2019-02-26T05:46:37.182Z,12.24
2019-02-26T05:49:05.561Z,13.34
2019-02-26T05:51:32.644Z,13.87
2019-02-26T05:54:02.539Z,14.37
2019-02-26T05:56:27.578Z,14.43
2019-02-26T05:58:53.872Z,15.73
2019-02-26T06:01:22.529Z,16.19
2019-02-26T06:03:49.720Z,14.93
2019-02-26T06:06:16.423Z,13.97
2019-02-26T06:08:42.582Z,13.68
2019-02-26T06:11:08.754Z,13.92
2019-02-26T06:13:37.714Z,13.86
2019-02-26T06:16:05.382Z,14.20
2019-02-26T06:18:31.062Z,14.57
2019-02-26T06:20:58.636Z,12.66
2019-02-26T06:23:28.188Z,12.88
2019-02-26T06:25:56.013Z,12.50
2019-02-26T06:28:22.524Z,12.16
2019-02-26T06:30:48.826Z,12.20
2019-02-26T06:33:16.379Z,12.08
2019-02-26T06:35:42.920Z,12.33
2019-02-26T06:38:11.099Z,11.74
2019-02-26T06:40:39.294Z,11.95
2019-02-26T06:43:05.410Z,12.21
2019-02-26T06:45:31.576Z,12.16
2019-02-26T06:47:59.606Z,12.32
2019-02-26T06:50:25.914Z,11.75
2019-02-26T06:52:52.068Z,11.01
2019-02-26T06:55:18.254Z,12.34
2019-02-26T06:57:47.238Z,13.34
2019-02-26T07:00:16.238Z,12.88
2019-02-26T07:02:45.463Z,13.08
2019-02-26T07:05:12.487Z,13.92
2019-02-26T07:07:38.754Z,14.64
2019-02-26T07:10:13.748Z,14.34
2019-02-26T07:12:41.206Z,14.30
2019-02-26T07:15:13.599Z,13.00
2019-02-26T07:17:41.161Z,13.77
2019-02-26T07:20:08.879Z,14.47
2019-02-26T07:22:35.029Z,16.03
2019-02-26T07:25:01.201Z,16.92
2019-02-26T07:27:28.883Z,16.69
2019-02-26T07:29:56.437Z,17.01
2019-02-26T07:32:24.547Z,16.67
2019-02-26T07:34:52.113Z,14.62
2019-02-26T07:37:18.586Z,15.46
2019-02-26T07:39:46.698Z,15.33
2019-02-26T07:42:14.639Z,14.65
2019-02-26T07:44:40.923Z,15.60
2019-02-26T07:47:11.149Z,15.43
2019-02-26T07:49:37.192Z,15.72
2019-02-26T07:52:06.653Z,14.37
2019-02-26T07:54:33.325Z,14.60
2019-02-26T07:57:02.105Z,15.14
2019-02-26T07:59:28.093Z,14.07
2019-02-26T08:01:55.742Z,15.68
2019-02-26T08:04:21.933Z,14.27
2019-02-26T08:06:48.191Z,14.95
2019-02-26T08:09:16.508Z,14.42
2019-02-26T08:11:45.838Z,15.80
2019-02-26T08:14:10.499Z,16.43
2019-02-26T08:16:36.657Z,16.98
2019-02-26T08:19:02.959Z,15.97
2019-02-26T08:21:29.766Z,14.55
2019-02-26T08:23:55.968Z,13.99
2019-02-26T08:26:24.261Z,14.21
2019-02-26T08:28:50.323Z,14.21
2019-02-26T08:31:18.537Z,14.58
2019-02-26T08:33:48.940Z,14.92
2019-02-26T08:36:14.192Z,14.76
2019-02-26T08:38:40.620Z,16.07
2019-02-26T08:41:06.819Z,17.55
2019-02-26T08:43:33.070Z,17.81
2019-02-26T08:45:59.227Z,17.70
2019-02-26T08:48:27.000Z,18.21
2019-02-26T08:50:55.654Z,17.36
2019-02-26T08:53:24.271Z,17.05
2019-02-26T08:55:51.523Z,16.50
2019-02-26T08:58:18.201Z,17.13
2019-02-26T09:00:44.379Z,17.25
2019-02-26T09:03:11.417Z,17.28
2019-02-26T09:05:38.645Z,17.28
2019-02-26T09:08:05.958Z,17.34
2019-02-26T09:10:33.007Z,16.28
2019-02-26T09:12:59.177Z,16.65
2019-02-26T09:15:25.439Z,17.23
2019-02-26T09:17:51.816Z,17.43
2019-02-26T09:20:19.373Z,16.30
2019-02-26T09:23:16.404Z,15.49
2019-02-26T09:26:05.272Z,16.49
2019-02-26T09:31:09.072Z,16.69
2019-02-26T09:33:37.598Z,17.36
2019-02-26T09:36:03.083Z,17.52
2019-02-26T09:41:01.068Z,18.58
2019-02-26T09:43:27.227Z,17.82
2019-02-26T09:46:18.783Z,18.67
2019-02-26T09:48:45.309Z,17.56
2019-02-26T09:51:14.270Z,18.75
2019-02-26T09:53:40.409Z,19.46
2019-02-26T09:56:06.976Z,19.15
2019-02-26T09:58:33.138Z,18.10
2019-02-26T10:00:59.327Z,19.60
2019-02-26T10:03:26.782Z,17.84
2019-02-26T10:05:56.003Z,17.45
2019-02-26T10:08:22.328Z,18.67
2019-02-26T10:10:51.947Z,18.48
2019-02-26T10:13:18.732Z,18.33
2019-02-26T10:15:45.985Z,17.17
2019-02-26T10:18:12.513Z,18.28
2019-02-26T10:20:38.675Z,18.82
2019-02-26T10:23:06.267Z,17.19
2019-02-26T10:25:35.027Z,17.73
2019-02-26T10:28:05.738Z,16.71
2019-02-26T10:30:31.409Z,16.77
2019-02-26T10:33:01.786Z,17.77
2019-02-26T10:35:33.203Z,18.08
2019-02-26T10:38:02.141Z,18.85
2019-02-26T10:40:34.827Z,20.37
2019-02-26T10:42:54.231Z,18.42
2019-02-26T10:45:28.593Z,17.53
2019-02-26T10:47:56.649Z,18.88
2019-02-26T10:50:24.904Z,19.71
2019-02-26T10:52:52.789Z,20.03
2019-02-26T10:55:21.936Z,20.54
2019-02-26T10:57:47.787Z,19.65
2019-02-26T11:00:22.569Z,19.23
2019-02-26T11:02:50.964Z,18.94
2019-02-26T11:05:20.869Z,18.61
2019-02-26T11:07:45.209Z,19.49
2019-02-26T11:10:14.676Z,18.96
2019-02-26T11:12:40.663Z,20.33
2019-02-26T11:15:15.701Z,19.87
2019-02-26T11:17:43.117Z,19.31
2019-02-26T11:20:12.630Z,19.96
2019-02-26T11:22:41.715Z,20.49
2019-02-26T11:25:09.533Z,20.60
2019-02-26T11:27:37.864Z,20.53
2019-02-26T11:30:07.601Z,19.44
2019-02-26T11:32:37.317Z,18.85
2019-02-26T11:35:02.748Z,19.21
2019-02-26T11:37:29.534Z,19.45
2019-02-26T11:39:57.688Z,19.68
2019-02-26T11:42:26.175Z,19.80
2019-02-26T11:44:53.311Z,20.57
2019-02-26T11:47:20.614Z,20.07
2019-02-26T11:49:46.956Z,19.83
2019-02-26T11:52:13.264Z,21.27
2019-02-26T11:54:40.280Z,20.33
2019-02-26T11:57:10.299Z,20.68
2019-02-26T11:59:38.080Z,20.16
2019-02-26T12:02:06.270Z,19.36
2019-02-26T12:04:32.449Z,18.64
2019-02-26T12:07:01.034Z,19.27
2019-02-26T12:09:32.486Z,19.19
2019-02-26T12:11:58.500Z,19.10
2019-02-26T12:14:25.715Z,19.72
2019-02-26T12:16:51.877Z,19.15
2019-02-26T12:19:18.139Z,17.89
2019-02-26T12:21:44.335Z,19.67
2019-02-26T12:24:12.577Z,17.73
2019-02-26T12:26:38.702Z,19.09
2019-02-26T12:29:04.889Z,19.49
2019-02-26T12:31:33.382Z,18.42
2019-02-26T12:33:59.115Z,19.00
2019-02-26T12:36:26.605Z,19.20
2019-02-26T12:38:54.271Z,18.75
2019-02-26T12:41:21.487Z,19.10
2019-02-26T12:43:47.677Z,18.26
2019-02-26T12:46:13.844Z,18.82
2019-02-26T12:48:41.865Z,19.01
2019-02-26T12:51:08.264Z,18.58
2019-02-26T12:53:44.081Z,17.62
2019-02-26T12:56:11.592Z,17.34
2019-02-26T12:58:38.210Z,17.94
2019-02-26T13:01:05.810Z,17.38
2019-02-26T13:03:35.203Z,18.26
2019-02-26T13:06:00.067Z,18.32
2019-02-26T13:08:26.250Z,18.63
2019-02-26T13:10:56.146Z,17.40
2019-02-26T13:13:20.614Z,19.55
2019-02-26T13:15:46.873Z,19.10
2019-02-26T13:18:13.074Z,19.20
2019-02-26T13:20:39.338Z,19.89
2019-02-26T13:23:17.074Z,18.90
2019-02-26T13:25:33.616Z,17.77
2019-02-26T13:27:59.779Z,18.10
2019-02-26T13:30:27.749Z,19.49
2019-02-26T13:32:58.119Z,19.63
2019-02-26T13:35:22.599Z,19.41
2019-02-26T13:37:50.972Z,20.10
2019-02-26T13:40:20.092Z,19.66
2019-02-26T13:42:49.932Z,19.21
2019-02-26T13:45:16.650Z,19.14
2019-02-26T13:47:43.044Z,19.59
2019-02-26T13:50:12.205Z,18.76
2019-02-26T13:52:38.367Z,19.45
2019-02-26T13:55:07.065Z,19.96
2019-02-26T13:57:35.147Z,17.98
2019-02-26T14:00:02.501Z,18.30
2019-02-26T14:02:28.790Z,18.59
2019-02-26T14:04:54.983Z,17.56
2019-02-26T14:07:21.260Z,17.94
2019-02-26T14:09:47.458Z,18.73
2019-02-26T14:12:13.923Z,17.99
2019-02-26T14:14:40.105Z,19.12
2019-02-26T14:17:06.290Z,19.17
2019-02-26T14:19:32.460Z,18.83
2019-02-26T14:21:58.735Z,19.40
2019-02-26T14:24:27.688Z,17.17
2019-02-26T14:26:53.844Z,18.06
2019-02-26T14:29:20.012Z,16.64
2019-02-26T14:31:46.307Z,17.01
2019-02-26T14:34:12.487Z,17.42
2019-02-26T14:36:40.544Z,17.48
2019-02-26T14:39:07.140Z,17.95
2019-02-26T14:41:33.302Z,18.02
2019-02-26T14:43:59.573Z,18.50
2019-02-26T14:46:25.741Z,18.91
2019-02-26T14:48:51.953Z,18.16
2019-02-26T14:51:20.033Z,17.35
2019-02-26T14:53:46.455Z,16.78
2019-02-26T14:56:12.686Z,17.01
2019-02-26T14:58:38.863Z,17.05
2019-02-26T15:01:05.072Z,17.76
2019-02-26T15:03:31.230Z,18.11
2019-02-26T15:05:57.390Z,17.28
2019-02-26T15:08:23.979Z,17.13
2019-02-26T15:10:50.137Z,17.64
2019-02-26T15:13:16.460Z,17.60
2019-02-26T15:15:42.684Z,17.58
2019-02-26T15:18:08.857Z,17.46
2019-02-26T15:20:35.137Z,17.77
2019-02-26T15:23:01.521Z,18.37
2019-02-26T15:25:31.331Z,17.20
2019-02-26T15:28:04.616Z,17.35
2019-02-26T15:30:25.681Z,17.60
2019-02-26T15:32:51.955Z,17.17
2019-02-26T15:35:18.223Z,17.85
2019-02-26T15:37:44.497Z,16.68
2019-02-26T15:40:18.849Z,17.00
2019-02-26T15:42:45.012Z,17.11
2019-02-26T15:45:24.146Z,17.28
2019-02-26T15:47:50.596Z,16.98
2019-02-26T15:50:20.500Z,15.56
2019-02-26T15:52:46.807Z,16.14
2019-02-26T15:55:21.768Z,17.27
2019-02-26T15:57:49.761Z,17.20
2019-02-26T16:00:21.421Z,16.70
2019-02-26T16:02:48.885Z,16.40
2019-02-26T16:05:15.615Z,17.34
2019-02-26T16:07:41.935Z,17.10
2019-02-26T16:10:09.692Z,17.55
2019-02-26T16:12:36.057Z,16.93
2019-02-26T16:15:03.366Z,16.06
2019-02-26T16:17:29.523Z,17.21
2019-02-26T16:19:55.786Z,16.56
2019-02-26T16:22:21.978Z,17.83
2019-02-26T16:24:48.131Z,16.92
2019-02-26T16:27:14.619Z,16.78
2019-02-26T16:29:40.923Z,16.79
2019-02-26T16:32:07.186Z,16.72
2019-02-26T16:34:35.089Z,18.45
2019-02-26T16:37:03.323Z,18.60
2019-02-26T16:39:29.606Z,18.09
2019-02-26T16:41:55.872Z,18.55
2019-02-26T16:44:22.550Z,18.58
2019-02-26T16:46:50.289Z,18.07
2019-02-26T16:49:16.557Z,18.45
2019-02-26T16:51:42.755Z,18.53
2019-02-26T16:54:09.354Z,18.52
2019-02-26T16:56:35.708Z,18.51
2019-02-26T16:59:01.915Z,18.72
2019-02-26T17:01:28.076Z,17.29
2019-02-26T17:03:54.240Z,16.88
2019-02-26T17:06:21.117Z,16.56
2019-02-26T17:08:47.862Z,16.34
2019-02-26T17:11:14.260Z,17.15
2019-02-26T17:13:42.695Z,17.63
2019-02-26T17:16:08.621Z,15.86
2019-02-26T17:18:34.878Z,17.05
2019-02-26T17:21:01.190Z,17.45
2019-02-26T17:23:27.336Z,17.34
2019-02-26T17:25:53.501Z,16.77
2019-02-26T17:28:19.695Z,16.58
2019-02-26T17:30:45.860Z,16.60
2019-02-26T17:33:14.459Z,16.67
2019-02-26T17:35:40.113Z,17.18
2019-02-26T17:38:06.294Z,16.81
2019-02-26T17:40:33.889Z,16.82
2019-02-26T17:43:00.552Z,16.32
2019-02-26T17:45:31.312Z,16.51
2019-02-26T17:47:57.618Z,15.89
2019-02-26T17:50:36.598Z,15.82
2019-02-26T17:53:02.751Z,15.54
2019-02-26T17:55:28.908Z,15.32
2019-02-26T17:57:55.200Z,15.85
2019-02-26T18:00:24.163Z,15.14
2019-02-26T18:02:50.340Z,15.33
2019-02-26T18:05:16.525Z,16.22
2019-02-26T18:07:42.677Z,15.23
2019-02-26T18:10:12.914Z,15.93
2019-02-26T18:12:39.963Z,14.86
2019-02-26T18:15:09.992Z,16.00
2019-02-26T18:17:36.256Z,16.48
2019-02-26T18:20:04.743Z,16.05
2019-02-26T18:22:31.820Z,16.23
2019-02-26T18:24:57.980Z,15.52
2019-02-26T18:27:24.192Z,15.01
2019-02-26T18:29:50.355Z,15.21
2019-02-26T18:32:16.513Z,15.39
2019-02-26T18:34:42.703Z,15.86
2019-02-26T18:37:08.974Z,15.82
2019-02-26T18:39:35.230Z,15.82
2019-02-26T18:42:01.422Z,15.61
2019-02-26T18:44:27.599Z,15.31
2019-02-26T18:46:53.780Z,14.77
2019-02-26T18:49:21.824Z,15.62
2019-02-26T18:51:49.714Z,15.97
2019-02-26T18:54:17.729Z,15.01
2019-02-26T18:56:44.388Z,14.83
2019-02-26T18:59:10.536Z,15.27
2019-02-26T19:01:36.815Z,15.77
2019-02-26T19:04:03.116Z,15.27
2019-02-26T19:06:30.314Z,15.09
2019-02-26T19:08:56.571Z,15.17
2019-02-26T19:11:25.430Z,15.70
2019-02-26T19:13:50.838Z,15.78
2019-02-26T19:16:20.441Z,15.77
2019-02-26T19:18:45.194Z,16.30
2019-02-26T19:21:11.351Z,16.11
2019-02-26T19:23:37.516Z,14.74
2019-02-26T19:26:03.712Z,15.09
2019-02-26T19:28:29.871Z,14.01
2019-02-26T19:30:56.029Z,14.58
2019-02-26T19:33:22.526Z,15.98
2019-02-26T19:35:48.881Z,16.14
2019-02-26T19:38:15.038Z,16.41
2019-02-26T19:40:47.066Z,16.30
2019-02-26T19:43:13.327Z,15.61
2019-02-26T19:45:43.892Z,16.31
2019-02-26T19:48:07.690Z,15.34
2019-02-26T19:50:34.879Z,14.85
2019-02-26T19:53:02.498Z,15.44
2019-02-26T19:55:35.476Z,15.48
2019-02-26T19:58:04.014Z,15.36
2019-02-26T20:00:29.977Z,14.05
2019-02-26T20:02:56.176Z,15.43
2019-02-26T20:05:24.401Z,15.61
2019-02-26T20:07:50.658Z,15.76
2019-02-26T20:10:17.547Z,15.22
2019-02-26T20:12:43.716Z,14.06
2019-02-26T20:15:13.195Z,14.15
2019-02-26T20:17:39.677Z,14.48
2019-02-26T20:20:11.679Z,15.50
2019-02-26T20:22:37.837Z,15.09
2019-02-26T20:25:07.638Z,14.26
2019-02-26T20:27:35.812Z,15.34
2019-02-26T20:30:02.753Z,13.79
2019-02-26T20:32:31.046Z,15.31
2019-02-26T20:34:57.112Z,15.19
2019-02-26T20:37:24.468Z,15.52
2019-02-26T20:39:51.287Z,15.48
2019-02-26T20:42:17.446Z,15.14
2019-02-26T20:44:45.474Z,15.41
2019-02-26T20:47:11.709Z,14.76
2019-02-26T20:49:37.873Z,14.77
2019-02-26T20:52:04.099Z,14.92
2019-02-26T20:54:30.290Z,15.91
2019-02-26T20:56:56.451Z,15.80
2019-02-26T20:59:22.607Z,15.84
2019-02-26T21:01:49.552Z,16.68
2019-02-26T21:04:16.067Z,16.73
2019-02-26T21:06:42.223Z,16.81
2019-02-26T21:09:08.422Z,17.02
2019-02-26T21:11:34.571Z,16.85
2019-02-26T21:14:00.841Z,16.79
2019-02-26T21:16:27.040Z,16.33
2019-02-26T21:18:53.192Z,16.03
2019-02-26T21:21:19.349Z,14.95
2019-02-26T21:23:45.644Z,15.64
2019-02-26T21:26:11.800Z,15.88
2019-02-26T21:28:38.076Z,15.92
2019-02-26T21:31:04.269Z,15.99
2019-02-26T21:33:31.281Z,15.83
2019-02-26T21:35:57.696Z,15.42
2019-02-26T21:38:23.889Z,16.04
2019-02-26T21:40:52.055Z,16.40
2019-02-26T21:43:18.113Z,16.60
2019-02-26T21:45:44.592Z,16.17
2019-02-26T21:48:10.959Z,15.84
2019-02-26T21:50:37.122Z,15.52
2019-02-26T21:53:04.161Z,16.32
2019-02-26T21:55:33.756Z,16.96
2019-02-26T21:57:58.472Z,17.03
2019-02-26T22:00:24.674Z,16.94
2019-02-26T22:02:52.456Z,16.17
2019-02-26T22:05:18.940Z,16.75
2019-02-26T22:07:45.126Z,16.42
2019-02-26T22:10:16.732Z,16.18
2019-02-26T22:12:42.885Z,16.05
2019-02-26T22:15:14.616Z,16.36
2019-02-26T22:17:40.790Z,16.23
2019-02-26T22:20:21.654Z,15.96
2019-02-26T22:22:37.926Z,16.26
2019-02-26T22:25:09.687Z,16.23
2019-02-26T22:27:33.738Z,15.98
2019-02-26T22:30:00.755Z,15.24
2019-02-26T22:32:26.908Z,15.70
2019-02-26T22:34:53.556Z,15.98
2019-02-26T22:37:20.553Z,16.03
2019-02-26T22:39:47.206Z,15.80
2019-02-26T22:42:13.365Z,16.07
2019-02-26T22:44:39.555Z,16.08
2019-02-26T22:47:07.054Z,16.04
2019-02-26T22:49:33.782Z,16.45
2019-02-26T22:51:59.972Z,15.50
2019-02-26T22:54:26.232Z,15.34
2019-02-26T22:56:56.692Z,14.96
2019-02-26T22:59:23.005Z,14.88
2019-02-26T23:01:49.254Z,14.47
2019-02-26T23:04:19.272Z,14.40
2019-02-26T23:06:44.000Z,14.20
2019-02-26T23:09:12.960Z,14.52
2019-02-26T23:11:39.230Z,14.44
2019-02-26T23:14:05.829Z,14.90
2019-02-26T23:16:33.691Z,15.30
2019-02-26T23:19:01.371Z,15.47
2019-02-26T23:21:28.151Z,15.53
2019-02-26T23:23:55.348Z,15.90
2019-02-26T23:26:21.686Z,15.73
2019-02-26T23:28:47.983Z,15.24
2019-02-26T23:31:15.347Z,15.30
2019-02-26T23:33:41.609Z,15.54
2019-02-26T23:36:08.101Z,15.64
2019-02-26T23:38:34.251Z,15.67
2019-02-26T23:41:00.911Z,14.99
2019-02-26T23:43:27.414Z,14.72
2019-02-26T23:45:56.845Z,14.18
2019-02-26T23:48:21.623Z,15.02
2019-02-26T23:50:47.965Z,15.54
2019-02-26T23:53:14.271Z,14.94
2019-02-26T23:55:40.551Z,14.51
2019-02-26T23:58:06.755Z,14.78
